createdAt,value
2023-04-23T00:00:37.749Z,48.37
2023-04-23T00:03:10.407Z,48.67
2023-04-23T00:05:38.835Z,48.37
2023-04-23T00:08:07.445Z,48.37
2023-04-23T00:10:35.590Z,48.20
2023-04-23T00:13:04.160Z,48.30
2023-04-23T00:15:32.744Z,48.63
2023-04-23T00:18:00.502Z,48.17
2023-04-23T00:20:29.688Z,48.43
2023-04-23T00:22:57.485Z,48.23
2023-04-23T00:25:25.233Z,48.17
2023-04-23T00:27:53.035Z,48.53
2023-04-23T00:30:20.956Z,48.47
2023-04-23T00:32:48.864Z,48.33
2023-04-23T00:35:16.748Z,48.60
2023-04-23T00:37:46.180Z,48.03
2023-04-23T00:40:14.191Z,48.27
2023-04-23T00:42:42.419Z,48.20
2023-04-23T00:45:10.770Z,47.97
2023-04-23T00:47:38.604Z,48.40
2023-04-23T00:50:08.036Z,48.40
2023-04-23T00:52:36.483Z,48.70
2023-04-23T00:55:06.400Z,48.23
2023-04-23T00:57:34.319Z,48.17
2023-04-23T01:00:02.219Z,48.07
2023-04-23T01:02:32.093Z,47.90
2023-04-23T01:05:02.315Z,48.20
2023-04-23T01:07:30.407Z,48.13
2023-04-23T01:09:58.309Z,48.07
2023-04-23T01:12:27.942Z,48.07
2023-04-23T01:14:55.904Z,48.43
2023-04-23T01:17:23.909Z,48.00
2023-04-23T01:19:54.154Z,48.43
2023-04-23T01:22:23.551Z,47.93
2023-04-23T01:24:52.641Z,48.13
2023-04-23T01:27:22.225Z,48.27
2023-04-23T01:29:50.802Z,47.70
2023-04-23T01:32:20.272Z,47.90
2023-04-23T01:34:48.946Z,48.07
2023-04-23T01:37:17.790Z,47.93
2023-04-23T01:39:47.004Z,48.00
2023-04-23T01:42:15.814Z,47.90
2023-04-23T01:44:43.673Z,47.80
2023-04-23T01:47:12.062Z,48.23
2023-04-23T01:49:39.878Z,48.10
2023-04-23T01:52:07.667Z,47.97
2023-04-23T01:54:35.464Z,48.17
2023-04-23T01:57:04.765Z,47.87
2023-04-23T01:59:33.595Z,48.10
2023-04-23T02:02:01.446Z,48.10
2023-04-23T02:04:31.441Z,47.83
2023-04-23T02:06:59.445Z,47.87
2023-04-23T02:09:27.253Z,47.83
2023-04-23T02:11:55.075Z,48.17
2023-04-23T02:14:24.220Z,47.77
2023-04-23T02:16:52.028Z,47.80
2023-04-23T02:19:19.830Z,47.80
2023-04-23T02:21:47.644Z,48.13
2023-04-23T02:24:15.544Z,47.83
2023-04-23T02:26:43.436Z,48.00
2023-04-23T02:29:11.299Z,47.80
2023-04-23T02:31:40.460Z,47.70
2023-04-23T02:34:08.303Z,47.67
2023-04-23T02:36:36.488Z,48.23
2023-04-23T02:39:04.497Z,47.83
2023-04-23T02:41:32.344Z,47.90
2023-04-23T02:44:00.346Z,47.77
2023-04-23T02:46:28.546Z,47.63
2023-04-23T02:48:57.724Z,47.87
2023-04-23T02:51:26.015Z,47.73
2023-04-23T02:53:53.802Z,47.77
2023-04-23T02:56:21.619Z,47.87
2023-04-23T02:58:49.474Z,47.53
2023-04-23T03:01:18.036Z,47.33
2023-04-23T03:03:46.193Z,47.47
2023-04-23T03:06:15.829Z,47.73
2023-04-23T03:08:43.599Z,47.60
2023-04-23T03:11:11.378Z,47.83
2023-04-23T03:13:39.643Z,47.47
2023-04-23T03:16:07.735Z,47.43
2023-04-23T03:18:35.657Z,47.67
2023-04-23T03:21:03.916Z,47.73
2023-04-23T03:23:33.398Z,47.70
2023-04-23T03:26:01.200Z,47.50
2023-04-23T03:28:29.020Z,47.67
2023-04-23T03:30:56.989Z,47.33
2023-04-23T03:33:24.824Z,47.57
2023-04-23T03:35:52.630Z,47.73
2023-04-23T03:38:24.990Z,47.47
2023-04-23T03:40:56.596Z,47.63
2023-04-23T03:43:26.328Z,47.77
2023-04-23T03:46:06.607Z,47.60
2023-04-23T03:48:39.046Z,47.67
2023-04-23T03:51:11.888Z,47.53
2023-04-23T03:53:49.683Z,47.53
2023-04-23T03:56:41.403Z,47.30
2023-04-23T03:59:19.311Z,47.40
2023-04-23T04:01:49.482Z,47.37
2023-04-23T04:04:17.475Z,47.20
2023-04-23T04:06:45.801Z,47.57
2023-04-23T04:09:13.571Z,47.33
2023-04-23T04:11:42.694Z,47.47
2023-04-23T04:14:10.790Z,47.57
2023-04-23T04:16:38.689Z,47.57
2023-04-23T04:19:06.572Z,47.50
2023-04-23T04:21:34.409Z,47.43
2023-04-23T04:24:02.717Z,47.43
2023-04-23T04:26:32.374Z,47.37
2023-04-23T04:29:01.829Z,47.60
2023-04-23T04:31:29.715Z,46.97
2023-04-23T04:33:57.740Z,47.50
2023-04-23T04:36:27.071Z,47.60
2023-04-23T04:38:55.950Z,47.17
2023-04-23T04:41:25.354Z,47.00
2023-04-23T04:43:53.306Z,47.37
2023-04-23T04:46:22.586Z,47.70
2023-04-23T04:48:50.439Z,47.40
2023-04-23T04:51:18.259Z,47.47
2023-04-23T04:53:46.016Z,47.67
2023-04-23T04:56:13.808Z,47.70
2023-04-23T04:58:41.592Z,47.33
2023-04-23T05:01:09.538Z,47.40
2023-04-23T05:03:39.153Z,47.47
2023-04-23T05:06:07.463Z,47.50
2023-04-23T05:08:36.899Z,47.43
2023-04-23T05:11:04.853Z,47.33
2023-04-23T05:13:32.740Z,47.57
2023-04-23T05:16:00.602Z,47.70
2023-04-23T05:18:28.841Z,47.47
2023-04-23T05:20:57.998Z,47.50
2023-04-23T05:23:25.791Z,47.53
2023-04-23T05:25:55.897Z,47.67
2023-04-23T05:28:23.676Z,47.57
2023-04-23T05:30:51.921Z,47.23
2023-04-23T05:33:19.976Z,47.23
2023-04-23T05:35:47.761Z,47.80
2023-04-23T05:38:20.170Z,47.67
2023-04-23T05:40:48.052Z,47.43
2023-04-23T05:43:16.256Z,47.70
2023-04-23T05:45:46.467Z,47.97
2023-04-23T05:48:14.348Z,47.77
2023-04-23T05:50:42.127Z,47.97
2023-04-23T05:53:09.942Z,48.00
2023-04-23T05:55:39.206Z,48.03
2023-04-23T05:58:07.066Z,48.13
2023-04-23T06:00:35.481Z,48.20
2023-04-23T06:03:03.456Z,48.10
2023-04-23T06:05:31.416Z,48.40
2023-04-23T06:07:59.301Z,48.63
2023-04-23T06:10:27.074Z,48.40
2023-04-23T06:12:56.401Z,48.90
2023-04-23T06:15:26.845Z,49.07
2023-04-23T06:17:54.869Z,48.97
2023-04-23T06:20:23.520Z,48.80
2023-04-23T06:22:51.339Z,49.23
2023-04-23T06:25:19.159Z,48.93
2023-04-23T06:27:46.995Z,48.97
2023-04-23T06:30:22.116Z,49.37
2023-04-23T06:32:51.588Z,49.67
2023-04-23T06:35:19.456Z,49.43
2023-04-23T06:37:47.274Z,49.23
2023-04-23T06:40:15.916Z,49.33
2023-04-23T06:42:45.299Z,49.13
2023-04-23T06:45:18.420Z,49.53
2023-04-23T06:47:49.145Z,49.43
2023-04-23T06:50:17.033Z,49.73
2023-04-23T06:52:44.896Z,49.87
2023-04-23T06:55:13.211Z,49.43
2023-04-23T06:57:41.060Z,50.27
2023-04-23T07:00:11.591Z,50.20
2023-04-23T07:02:42.456Z,50.07
2023-04-23T07:05:12.090Z,49.83
2023-04-23T07:07:40.599Z,50.40
2023-04-23T07:10:09.853Z,50.17
2023-04-23T07:12:38.116Z,50.43
2023-04-23T07:15:07.494Z,50.03
2023-04-23T07:17:35.912Z,50.13
2023-04-23T07:20:06.353Z,50.13
2023-04-23T07:22:36.085Z,50.33
2023-04-23T07:25:05.243Z,50.27
2023-04-23T07:27:33.077Z,50.23
2023-04-23T07:30:01.851Z,50.17
2023-04-23T07:32:29.992Z,50.07
2023-04-23T07:34:57.908Z,50.07
2023-04-23T07:37:25.759Z,50.10
2023-04-23T07:39:54.868Z,49.90
2023-04-23T07:42:22.666Z,50.20
2023-04-23T07:44:50.489Z,50.00
2023-04-23T07:47:18.311Z,50.00
2023-04-23T07:49:46.122Z,49.93
2023-04-23T07:52:13.972Z,49.73
2023-04-23T07:54:41.753Z,49.67
2023-04-23T07:57:12.085Z,49.97
2023-04-23T07:59:40.099Z,49.90
2023-04-23T08:02:08.422Z,49.77
2023-04-23T08:04:36.455Z,49.93
2023-04-23T08:07:04.382Z,49.97
2023-04-23T08:09:32.167Z,50.50
2023-04-23T08:12:00.064Z,50.17
2023-04-23T08:14:29.232Z,49.80
2023-04-23T08:16:57.040Z,49.80
2023-04-23T08:19:25.699Z,50.90
2023-04-23T08:21:53.566Z,50.77
2023-04-23T08:24:21.342Z,51.43
2023-04-23T08:26:49.456Z,51.70
2023-04-23T08:29:17.245Z,52.37
2023-04-23T08:31:46.518Z,51.97
2023-04-23T08:34:14.938Z,52.13
2023-04-23T08:36:42.872Z,52.03
2023-04-23T08:39:11.375Z,52.30
2023-04-23T08:41:42.654Z,52.70
2023-04-23T08:44:17.938Z,52.93
2023-04-23T08:46:47.329Z,53.13
2023-04-23T08:49:16.999Z,53.13
2023-04-23T08:51:49.675Z,53.17
2023-04-23T08:54:22.424Z,52.50
2023-04-23T08:56:52.009Z,52.23
2023-04-23T08:59:21.288Z,52.30
2023-04-23T09:01:51.054Z,52.10
2023-04-23T09:04:20.444Z,52.87
2023-04-23T09:06:48.296Z,52.67
2023-04-23T09:09:17.681Z,52.63
2023-04-23T09:11:45.584Z,52.53
2023-04-23T09:14:14.196Z,52.83
2023-04-23T09:16:42.561Z,52.77
2023-04-23T09:19:12.455Z,52.63
2023-04-23T09:21:41.438Z,52.87
2023-04-23T09:24:12.338Z,52.60
2023-04-23T09:26:46.660Z,52.77
2023-04-23T09:29:17.376Z,52.70
2023-04-23T09:31:47.692Z,52.73
2023-04-23T09:34:19.083Z,52.70
2023-04-23T09:36:49.203Z,52.50
2023-04-23T09:39:18.287Z,52.63
2023-04-23T09:41:46.752Z,52.90
2023-04-23T09:44:19.259Z,52.57
2023-04-23T09:46:47.117Z,52.83
2023-04-23T09:49:15.329Z,52.30
2023-04-23T09:51:46.445Z,52.00
2023-04-23T09:54:16.422Z,52.27
2023-04-23T09:56:44.762Z,52.13
2023-04-23T09:59:32.010Z,51.90
2023-04-23T10:02:09.527Z,51.90
2023-04-23T10:04:39.570Z,52.17
2023-04-23T10:09:44.534Z,52.27
2023-04-23T10:12:31.401Z,52.27
2023-04-23T10:15:01.685Z,52.23
2023-04-23T10:17:29.627Z,52.53
2023-04-23T10:19:59.062Z,52.43
2023-04-23T10:22:29.928Z,52.23
2023-04-23T10:24:59.118Z,52.00
2023-04-23T10:27:40.481Z,51.60
2023-04-23T10:30:17.759Z,51.53
2023-04-23T10:32:48.581Z,51.87
2023-04-23T10:35:16.636Z,52.00
2023-04-23T10:37:47.980Z,52.03
2023-04-23T10:40:19.687Z,51.87
2023-04-23T10:42:49.374Z,51.70
2023-04-23T10:47:49.365Z,51.67
2023-04-23T10:50:23.187Z,51.70
2023-04-23T10:52:53.665Z,51.73
2023-04-23T10:55:23.323Z,51.90
2023-04-23T10:58:00.841Z,51.97
2023-04-23T11:00:31.400Z,52.20
2023-04-23T11:02:59.230Z,52.07
2023-04-23T11:05:29.162Z,51.77
2023-04-23T11:08:18.870Z,52.00
2023-04-23T11:10:57.350Z,52.13
2023-04-23T11:13:25.919Z,52.13
2023-04-23T11:16:17.508Z,52.33
2023-04-23T11:18:58.946Z,51.67
2023-04-23T11:21:58.329Z,52.10
2023-04-23T11:24:28.709Z,52.07
2023-04-23T11:26:57.021Z,52.27
2023-04-23T11:29:26.525Z,52.30
2023-04-23T11:32:02.709Z,52.60
2023-04-23T11:34:32.062Z,52.37
2023-04-23T11:37:01.300Z,52.47
2023-04-23T11:39:30.512Z,52.60
2023-04-23T11:41:59.209Z,52.13
2023-04-23T11:44:27.021Z,52.50
2023-04-23T11:49:22.914Z,52.37
2023-04-23T11:51:50.692Z,52.40
2023-04-23T11:54:19.963Z,52.50
2023-04-23T11:56:49.132Z,52.40
2023-04-23T11:59:16.888Z,52.37
2023-04-23T12:01:46.965Z,52.33
2023-04-23T12:04:17.175Z,52.33
2023-04-23T12:06:46.809Z,52.23
2023-04-23T12:09:16.658Z,52.53
2023-04-23T12:11:46.788Z,52.07
2023-04-23T12:14:16.523Z,52.17
2023-04-23T12:16:46.888Z,51.87
2023-04-23T12:19:16.763Z,52.23
2023-04-23T12:21:54.499Z,52.00
2023-04-23T12:24:23.477Z,52.17
2023-04-23T12:26:54.337Z,52.33
2023-04-23T12:29:24.191Z,52.47
2023-04-23T12:31:53.083Z,52.03
2023-04-23T12:34:21.845Z,52.37
2023-04-23T12:36:51.348Z,52.23
2023-04-23T12:39:33.615Z,52.33
2023-04-23T12:42:04.857Z,52.37
2023-04-23T12:44:35.763Z,52.07
2023-04-23T12:47:05.154Z,52.00
2023-04-23T12:49:34.025Z,52.40
2023-04-23T12:52:03.103Z,52.13
2023-04-23T12:54:32.944Z,52.70
2023-04-23T12:57:02.658Z,52.40
2023-04-23T12:59:31.191Z,52.33
2023-04-23T13:02:02.038Z,52.07
2023-04-23T13:04:30.469Z,52.53
2023-04-23T13:06:58.340Z,52.57
2023-04-23T13:09:27.789Z,52.77
2023-04-23T13:11:56.223Z,52.70
2023-04-23T13:14:24.005Z,52.43
2023-04-23T13:16:52.665Z,52.47
2023-04-23T13:19:21.894Z,52.03
2023-04-23T13:21:49.690Z,51.83
2023-04-23T13:24:17.452Z,51.70
2023-04-23T13:26:45.259Z,51.80
2023-04-23T13:29:13.151Z,51.53
2023-04-23T13:31:41.013Z,51.37
2023-04-23T13:34:08.864Z,52.00
2023-04-23T13:36:41.116Z,51.87
2023-04-23T13:39:09.677Z,51.73
2023-04-23T13:41:37.532Z,51.67
2023-04-23T13:44:05.607Z,51.80
2023-04-23T13:46:33.900Z,51.40
2023-04-23T13:49:02.004Z,51.97
2023-04-23T13:51:35.697Z,52.07
2023-04-23T13:54:05.486Z,52.27
2023-04-23T13:56:33.638Z,52.10
2023-04-23T13:59:12.035Z,52.27
2023-04-23T14:01:47.021Z,51.83
2023-04-23T14:04:15.065Z,52.07
2023-04-23T14:06:43.143Z,52.17
2023-04-23T14:09:12.541Z,51.77
2023-04-23T14:11:41.374Z,52.13
2023-04-23T14:14:09.381Z,52.03
2023-04-23T14:16:37.292Z,52.40
2023-04-23T14:19:05.182Z,52.27
2023-04-23T14:21:33.656Z,52.20
2023-04-23T14:24:08.848Z,51.83
2023-04-23T14:26:48.696Z,52.20
2023-04-23T14:29:26.052Z,52.33
2023-04-23T14:31:53.881Z,52.53
2023-04-23T14:34:22.100Z,51.97
2023-04-23T14:36:50.111Z,52.50
2023-04-23T14:39:17.977Z,52.20
2023-04-23T14:41:47.195Z,52.47
2023-04-23T14:44:15.012Z,52.07
2023-04-23T14:46:42.807Z,52.17
2023-04-23T14:49:10.820Z,52.07
2023-04-23T14:51:38.629Z,52.20
2023-04-23T14:54:07.410Z,52.57
2023-04-23T14:56:35.193Z,52.53
2023-04-23T14:59:04.569Z,52.17
2023-04-23T15:01:32.457Z,52.23
2023-04-23T15:04:00.390Z,52.07
2023-04-23T15:06:28.326Z,52.23
2023-04-23T15:08:56.131Z,52.53
2023-04-23T15:11:24.014Z,52.53
2023-04-23T15:13:57.697Z,52.40
2023-04-23T15:16:44.178Z,52.07
2023-04-23T15:19:15.096Z,51.77
2023-04-23T15:21:43.036Z,52.17
2023-04-23T15:24:11.238Z,52.37
2023-04-23T15:26:39.088Z,52.03
2023-04-23T15:29:08.721Z,51.93
2023-04-23T15:31:38.659Z,52.27
2023-04-23T15:34:08.410Z,52.27
2023-04-23T15:36:37.286Z,52.23
2023-04-23T15:39:05.796Z,52.10
2023-04-23T15:41:33.691Z,52.13
2023-04-23T15:44:02.859Z,52.03
2023-04-23T15:46:30.919Z,52.00
2023-04-23T15:49:00.107Z,51.90
2023-04-23T15:51:27.929Z,52.17
2023-04-23T15:53:55.743Z,52.27
2023-04-23T15:56:24.193Z,52.07
2023-04-23T15:58:51.978Z,51.60
2023-04-23T16:01:20.038Z,51.83
2023-04-23T16:04:01.790Z,51.67
2023-04-23T16:06:36.977Z,51.83
2023-04-23T16:09:08.631Z,51.43
2023-04-23T16:11:37.341Z,51.87
2023-04-23T16:14:06.078Z,51.63
2023-04-23T16:16:33.990Z,51.87
2023-04-23T16:19:03.041Z,52.03
2023-04-23T16:21:31.131Z,51.77
2023-04-23T16:24:00.288Z,51.80
2023-04-23T16:26:29.178Z,51.87
2023-04-23T16:29:11.432Z,51.80
2023-04-23T16:31:45.956Z,51.93
2023-04-23T16:34:13.774Z,51.67
2023-04-23T16:36:41.675Z,51.60
2023-04-23T16:39:11.055Z,51.70
2023-04-23T16:41:38.902Z,51.93
2023-04-23T16:44:06.842Z,51.83
2023-04-23T16:46:34.742Z,51.77
2023-04-23T16:49:02.586Z,51.83
2023-04-23T16:51:30.358Z,51.77
2023-04-23T16:53:58.264Z,51.43
2023-04-23T16:56:27.953Z,51.10
2023-04-23T16:58:55.783Z,51.07
2023-04-23T17:01:23.634Z,51.07
2023-04-23T17:03:51.682Z,51.07
2023-04-23T17:06:27.722Z,50.57
2023-04-23T17:08:57.599Z,50.60
2023-04-23T17:11:26.877Z,50.70
2023-04-23T17:13:55.561Z,50.53
2023-04-23T17:16:25.080Z,50.33
2023-04-23T17:18:53.140Z,50.20
2023-04-23T17:21:24.448Z,50.00
2023-04-23T17:23:52.364Z,50.20
2023-04-23T17:26:20.766Z,50.27
2023-04-23T17:28:49.918Z,50.27
2023-04-23T17:31:18.456Z,50.00
2023-04-23T17:33:49.008Z,50.13
2023-04-23T17:36:17.087Z,50.00
2023-04-23T17:38:44.880Z,50.10
2023-04-23T17:41:12.729Z,49.83
2023-04-23T17:43:40.983Z,49.83
2023-04-23T17:46:10.159Z,50.00
2023-04-23T17:48:37.951Z,50.03
2023-04-23T17:51:05.775Z,50.00
2023-04-23T17:53:33.648Z,49.87
2023-04-23T17:56:03.210Z,49.77
2023-04-23T17:58:31.506Z,50.03
2023-04-23T18:00:59.552Z,49.80
2023-04-23T18:03:30.081Z,49.47
2023-04-23T18:05:58.108Z,49.80
2023-04-23T18:08:25.936Z,49.87
2023-04-23T18:10:53.795Z,49.73
2023-04-23T18:13:21.601Z,49.80
2023-04-23T18:15:49.575Z,49.40
2023-04-23T18:18:17.770Z,49.73
2023-04-23T18:20:47.318Z,49.50
2023-04-23T18:23:15.165Z,49.83
2023-04-23T18:25:42.975Z,49.57
2023-04-23T18:28:10.916Z,49.63
2023-04-23T18:30:38.832Z,49.57
2023-04-23T18:33:13.808Z,49.40
2023-04-23T18:35:42.956Z,49.30
2023-04-23T18:38:25.678Z,49.50
2023-04-23T18:40:53.636Z,49.03
2023-04-23T18:43:21.424Z,49.53
2023-04-23T18:45:49.231Z,49.23
2023-04-23T18:48:42.326Z,49.43
2023-04-23T18:51:22.855Z,49.00
2023-04-23T18:53:52.113Z,48.93
2023-04-23T18:56:19.895Z,49.10
2023-04-23T18:58:47.796Z,48.93
2023-04-23T19:01:15.647Z,49.17
2023-04-23T19:03:43.797Z,48.97
2023-04-23T19:06:11.688Z,49.23
2023-04-23T19:08:39.486Z,49.13
2023-04-23T19:11:08.632Z,49.10
2023-04-23T19:13:36.452Z,49.13
2023-04-23T19:16:04.326Z,49.07
2023-04-23T19:18:32.142Z,48.97
2023-04-23T19:20:59.959Z,49.17
2023-04-23T19:23:27.766Z,49.27
2023-04-23T19:25:55.729Z,49.20
2023-04-23T19:28:25.346Z,49.37
2023-04-23T19:30:53.370Z,48.80
2023-04-23T19:33:21.179Z,49.67
2023-04-23T19:35:48.961Z,49.43
2023-04-23T19:38:16.783Z,49.60
2023-04-23T19:40:44.608Z,49.67
2023-04-23T19:43:12.901Z,49.67
2023-04-23T19:45:42.135Z,49.63
2023-04-23T19:48:10.364Z,49.77
2023-04-23T19:50:38.138Z,49.47
2023-04-23T19:53:06.616Z,49.80
2023-04-23T19:55:34.420Z,49.73
2023-04-23T19:58:06.124Z,49.17
2023-04-23T20:00:39.104Z,49.67
2023-04-23T20:03:09.125Z,49.63
2023-04-23T20:05:37.481Z,49.57
2023-04-23T20:08:11.237Z,49.67
2023-04-23T20:10:39.046Z,49.17
2023-04-23T20:13:06.894Z,49.67
2023-04-23T20:15:34.703Z,49.67
2023-04-23T20:18:02.624Z,49.57
2023-04-23T20:20:33.816Z,49.57
2023-04-23T20:23:01.789Z,49.37
2023-04-23T20:25:29.715Z,49.57
2023-04-23T20:27:57.689Z,49.07
2023-04-23T20:30:25.874Z,49.47
2023-04-23T20:32:54.004Z,49.50
2023-04-23T20:35:21.881Z,49.20
2023-04-23T20:37:52.923Z,49.53
2023-04-23T20:40:20.844Z,49.23
2023-04-23T20:42:51.505Z,49.27
2023-04-23T20:45:20.433Z,49.37
2023-04-23T20:47:48.835Z,49.30
2023-04-23T20:50:17.052Z,49.33
2023-04-23T20:52:44.850Z,49.40
2023-04-23T20:55:14.010Z,49.13
2023-04-23T20:57:42.257Z,49.40
2023-04-23T21:00:12.643Z,49.23
2023-04-23T21:02:40.586Z,49.37
2023-04-23T21:05:09.403Z,48.97
2023-04-23T21:07:37.516Z,48.97
2023-04-23T21:10:05.829Z,49.07
2023-04-23T21:12:35.048Z,48.80
2023-04-23T21:15:02.914Z,49.10
2023-04-23T21:17:30.798Z,48.67
2023-04-23T21:19:58.618Z,48.93
2023-04-23T21:22:26.487Z,49.37
2023-04-23T21:24:54.285Z,48.57
2023-04-23T21:27:22.207Z,49.10
2023-04-23T21:29:51.623Z,48.67
2023-04-23T21:32:19.631Z,48.87
2023-04-23T21:34:47.503Z,49.13
2023-04-23T21:37:15.330Z,48.47
2023-04-23T21:39:43.394Z,48.73
2023-04-23T21:42:11.411Z,48.83
2023-04-23T21:44:40.566Z,48.93
2023-04-23T21:47:09.699Z,49.00
2023-04-23T21:49:37.546Z,49.50
2023-04-23T21:52:06.452Z,49.03
2023-04-23T21:54:34.220Z,49.13
2023-04-23T21:57:02.600Z,48.73
2023-04-23T21:59:30.855Z,49.27
2023-04-23T22:01:59.260Z,49.10
2023-04-23T22:04:29.199Z,49.03
2023-04-23T22:07:02.214Z,49.00
2023-04-23T22:09:30.074Z,49.00
2023-04-23T22:14:28.716Z,49.50
2023-04-23T22:16:58.571Z,49.20
2023-04-23T22:19:27.857Z,48.97
2023-04-23T22:21:55.828Z,49.53
2023-04-23T22:24:24.155Z,49.17
2023-04-23T22:26:51.963Z,49.30
2023-04-23T22:29:19.781Z,49.37
2023-04-23T22:31:47.608Z,49.27
2023-04-23T22:34:15.393Z,48.90
2023-04-23T22:36:44.506Z,49.00
2023-04-23T22:39:12.845Z,48.87
2023-04-23T22:41:40.622Z,49.10
2023-04-23T22:44:09.154Z,49.47
2023-04-23T22:46:37.170Z,49.13
2023-04-23T22:49:07.960Z,48.97
2023-04-23T22:51:38.648Z,48.77
2023-04-23T22:54:07.786Z,48.97
2023-04-23T22:56:35.744Z,49.03
2023-04-23T22:59:04.853Z,48.90
2023-04-23T23:01:32.794Z,49.10
2023-04-23T23:04:00.885Z,48.87
2023-04-23T23:06:28.679Z,48.67
2023-04-23T23:08:56.462Z,48.87
2023-04-23T23:11:25.625Z,49.13
2023-04-23T23:13:53.924Z,49.20
2023-04-23T23:16:21.925Z,48.90
2023-04-23T23:18:49.938Z,49.07
2023-04-23T23:21:18.105Z,48.67
2023-04-23T23:23:46.020Z,49.13
2023-04-23T23:26:13.786Z,48.90
2023-04-23T23:28:42.981Z,49.17
2023-04-23T23:31:11.333Z,49.20
2023-04-23T23:33:39.956Z,48.70
2023-04-23T23:36:09.200Z,48.93
2023-04-23T23:38:37.021Z,48.67
2023-04-23T23:41:04.856Z,49.23
2023-04-23T23:43:32.642Z,49.13
2023-04-23T23:46:01.759Z,49.03
2023-04-23T23:48:29.633Z,48.93
2023-04-23T23:50:57.457Z,48.70
2023-04-23T23:53:25.232Z,49.20
2023-04-23T23:55:52.984Z,48.73
2023-04-23T23:58:21.537Z,48.83
